createdAt,value
2017-10-20T00:00:11.129Z,0
2017-10-20T00:00:51.675Z,0
2017-10-20T00:01:32.211Z,0
2017-10-20T00:02:12.742Z,0
2017-10-20T00:02:53.286Z,0
2017-10-20T00:03:33.816Z,0
2017-10-20T00:04:14.357Z,0
2017-10-20T00:04:54.895Z,0
2017-10-20T00:05:35.435Z,0
2017-10-20T00:06:15.977Z,0
2017-10-20T00:06:56.513Z,0
2017-10-20T00:07:37.052Z,0
2017-10-20T00:08:17.594Z,0
2017-10-20T00:08:58.135Z,0
2017-10-20T00:09:38.675Z,0
2017-10-20T00:10:19.214Z,0
2017-10-20T00:10:59.742Z,0
2017-10-20T00:11:40.282Z,0
2017-10-20T00:12:20.824Z,0
2017-10-20T00:13:01.367Z,0
2017-10-20T00:13:41.907Z,0
2017-10-20T00:14:22.452Z,0
2017-10-20T00:15:02.992Z,0
2017-10-20T00:15:43.563Z,0
2017-10-20T00:16:24.087Z,0
2017-10-20T00:17:04.670Z,0
2017-10-20T00:17:45.214Z,0
2017-10-20T00:18:25.753Z,0
2017-10-20T00:19:06.285Z,0
2017-10-20T00:19:46.834Z,0
2017-10-20T00:20:27.365Z,0
2017-10-20T00:21:07.901Z,0
2017-10-20T00:21:48.446Z,0
2017-10-20T00:22:28.991Z,0
2017-10-20T00:23:09.532Z,0
2017-10-20T00:23:50.070Z,0
2017-10-20T00:24:30.609Z,0
2017-10-20T00:25:11.159Z,0
2017-10-20T00:25:51.698Z,0
2017-10-20T00:26:32.228Z,0
2017-10-20T00:27:12.767Z,0
2017-10-20T00:27:53.304Z,0
2017-10-20T00:28:33.849Z,0
2017-10-20T00:29:14.397Z,0
2017-10-20T00:29:54.940Z,0
2017-10-20T00:30:35.468Z,0
2017-10-20T00:31:16.005Z,0
2017-10-20T00:31:56.543Z,0
2017-10-20T00:32:37.074Z,0
2017-10-20T00:33:17.645Z,0
2017-10-20T00:33:58.184Z,0
2017-10-20T00:34:38.718Z,0
2017-10-20T00:35:19.255Z,0
2017-10-20T00:35:59.792Z,0
2017-10-20T00:36:40.330Z,0
2017-10-20T00:37:20.860Z,0
2017-10-20T00:38:01.399Z,0
2017-10-20T00:38:41.940Z,0
2017-10-20T00:39:22.479Z,0
2017-10-20T00:40:03.020Z,0
2017-10-20T00:40:43.561Z,0
2017-10-20T00:41:24.101Z,0
2017-10-20T00:42:04.640Z,0
2017-10-20T00:42:45.195Z,0
2017-10-20T00:43:25.728Z,0
2017-10-20T00:44:06.267Z,0
2017-10-20T00:44:46.807Z,0
2017-10-20T00:45:27.346Z,0
2017-10-20T00:46:07.950Z,0
2017-10-20T00:46:48.484Z,0
2017-10-20T00:47:29.022Z,0
2017-10-20T00:48:09.552Z,0
2017-10-20T00:48:50.088Z,0
2017-10-20T00:49:30.633Z,0
2017-10-20T00:50:11.168Z,0
2017-10-20T00:50:51.697Z,0
2017-10-20T00:51:32.287Z,0
2017-10-20T00:52:12.829Z,0
2017-10-20T00:52:53.373Z,0
2017-10-20T00:53:33.912Z,0
2017-10-20T00:54:14.460Z,0
2017-10-20T00:54:54.991Z,0
2017-10-20T00:55:35.530Z,0
2017-10-20T00:56:16.070Z,0
2017-10-20T00:56:56.598Z,0
2017-10-20T00:57:37.136Z,0
2017-10-20T00:58:17.682Z,0
2017-10-20T00:58:58.218Z,0
2017-10-20T00:59:38.755Z,0
2017-10-20T01:00:19.295Z,0
2017-10-20T01:00:59.836Z,0
2017-10-20T01:01:40.376Z,0
2017-10-20T01:02:20.914Z,0
2017-10-20T01:03:01.453Z,0
2017-10-20T01:03:41.992Z,0
2017-10-20T01:04:22.555Z,0
2017-10-20T01:05:03.075Z,0
2017-10-20T01:05:43.612Z,0
2017-10-20T01:06:27.095Z,0
2017-10-20T01:07:07.625Z,0
2017-10-20T01:07:48.186Z,0
2017-10-20T01:08:28.725Z,0
2017-10-20T01:09:09.267Z,0
2017-10-20T01:09:49.805Z,0
2017-10-20T01:10:30.348Z,0
2017-10-20T01:11:10.885Z,0
2017-10-20T01:11:51.424Z,0
2017-10-20T01:12:31.963Z,0
2017-10-20T01:13:12.501Z,0
2017-10-20T01:13:53.035Z,0
2017-10-20T01:14:33.580Z,0
2017-10-20T01:15:14.112Z,0
2017-10-20T01:15:54.653Z,0
2017-10-20T01:16:35.189Z,0
2017-10-20T01:17:17.591Z,0
2017-10-20T01:18:32.821Z,0
2017-10-20T01:19:13.369Z,0
2017-10-20T01:19:53.903Z,0
2017-10-20T01:20:34.440Z,0
2017-10-20T01:21:14.978Z,0
2017-10-20T01:21:55.514Z,0
2017-10-20T01:22:36.052Z,0
2017-10-20T01:23:16.586Z,0
2017-10-20T01:23:57.127Z,0
2017-10-20T01:24:37.664Z,0
2017-10-20T01:25:18.203Z,0
2017-10-20T01:25:58.738Z,0
2017-10-20T01:26:39.278Z,0
2017-10-20T01:27:19.816Z,0
2017-10-20T01:28:00.355Z,0
2017-10-20T01:28:40.897Z,0
2017-10-20T01:29:21.426Z,0
2017-10-20T01:30:01.967Z,0
2017-10-20T01:30:42.506Z,0
2017-10-20T01:31:23.043Z,0
2017-10-20T01:32:03.583Z,0
2017-10-20T01:32:44.121Z,0
2017-10-20T01:33:24.662Z,0
2017-10-20T01:34:05.202Z,0
2017-10-20T01:34:45.741Z,0
2017-10-20T01:35:26.280Z,0
2017-10-20T01:36:06.821Z,0
2017-10-20T01:36:47.360Z,0
2017-10-20T01:37:27.896Z,0
2017-10-20T01:38:08.441Z,0
2017-10-20T01:38:48.975Z,0
2017-10-20T01:39:29.539Z,0
2017-10-20T01:40:10.074Z,0
2017-10-20T01:40:50.611Z,0
2017-10-20T01:41:31.141Z,0
2017-10-20T01:42:11.687Z,0
2017-10-20T01:42:52.217Z,0
2017-10-20T01:43:32.752Z,0
2017-10-20T01:44:13.297Z,0
2017-10-20T01:44:53.833Z,0
2017-10-20T01:45:34.370Z,0
2017-10-20T01:46:14.912Z,0
2017-10-20T01:46:55.450Z,0
2017-10-20T01:47:35.985Z,0
2017-10-20T01:48:16.526Z,0
2017-10-20T01:48:57.060Z,0
2017-10-20T01:49:37.601Z,0
2017-10-20T01:50:18.138Z,0
2017-10-20T01:50:58.672Z,0
2017-10-20T01:51:39.217Z,0
2017-10-20T01:52:19.758Z,0
2017-10-20T01:53:00.291Z,0
2017-10-20T01:53:40.826Z,0
2017-10-20T01:54:21.360Z,0
2017-10-20T01:55:01.905Z,0
2017-10-20T01:55:42.440Z,0
2017-10-20T01:56:22.984Z,0
2017-10-20T01:57:03.526Z,0
2017-10-20T01:57:44.060Z,0
2017-10-20T01:58:24.595Z,0
2017-10-20T01:59:05.132Z,0
2017-10-20T01:59:45.668Z,0
2017-10-20T02:00:26.209Z,0
2017-10-20T02:01:06.758Z,0
2017-10-20T02:01:47.290Z,0
2017-10-20T02:02:27.833Z,0
2017-10-20T02:03:08.365Z,0
2017-10-20T02:03:48.909Z,0
2017-10-20T02:04:29.446Z,0
2017-10-20T02:05:09.986Z,0
2017-10-20T02:05:50.518Z,0
2017-10-20T02:06:31.057Z,0
2017-10-20T02:07:11.605Z,0
2017-10-20T02:07:52.134Z,0
2017-10-20T02:08:32.669Z,0
2017-10-20T02:09:13.269Z,0
2017-10-20T02:09:53.808Z,0
2017-10-20T02:10:34.363Z,0
2017-10-20T02:11:14.903Z,0
2017-10-20T02:11:55.450Z,0
2017-10-20T02:12:35.994Z,0
2017-10-20T02:13:16.517Z,0
2017-10-20T02:13:57.048Z,0
2017-10-20T02:14:37.587Z,0
2017-10-20T02:15:18.130Z,0
2017-10-20T02:15:58.668Z,0
2017-10-20T02:16:39.205Z,0
2017-10-20T02:17:19.741Z,0
2017-10-20T02:18:00.282Z,0
2017-10-20T02:18:40.822Z,0
2017-10-20T02:19:21.357Z,0
2017-10-20T02:20:01.897Z,0
2017-10-20T02:20:42.433Z,0
2017-10-20T02:21:22.969Z,0
2017-10-20T02:22:03.501Z,0
2017-10-20T02:22:44.040Z,0
2017-10-20T02:23:24.577Z,0
2017-10-20T02:24:05.116Z,0
2017-10-20T02:24:45.667Z,0
2017-10-20T02:25:26.196Z,0
2017-10-20T02:26:06.746Z,0
2017-10-20T02:26:47.287Z,0
2017-10-20T02:27:27.824Z,0
2017-10-20T02:28:08.369Z,0
2017-10-20T02:28:48.905Z,0
2017-10-20T02:29:29.448Z,0
2017-10-20T02:30:09.988Z,0
2017-10-20T02:30:50.526Z,0
2017-10-20T02:31:31.066Z,0
2017-10-20T02:32:11.600Z,0
2017-10-20T02:32:52.141Z,0
2017-10-20T02:33:32.681Z,0
2017-10-20T02:34:13.222Z,0
2017-10-20T02:34:53.759Z,0
2017-10-20T02:35:34.291Z,0
2017-10-20T02:36:14.833Z,0
2017-10-20T02:36:55.371Z,0
2017-10-20T02:37:35.903Z,0
2017-10-20T02:38:16.448Z,0
2017-10-20T02:38:56.989Z,0
2017-10-20T02:39:37.533Z,0
2017-10-20T02:40:18.069Z,0
2017-10-20T02:40:58.616Z,0
2017-10-20T02:41:39.148Z,0
2017-10-20T02:42:19.694Z,0
2017-10-20T02:43:00.234Z,0
2017-10-20T02:43:40.831Z,0
2017-10-20T02:44:21.368Z,0
2017-10-20T02:45:01.907Z,0
2017-10-20T02:45:42.449Z,0
2017-10-20T02:46:22.981Z,0
2017-10-20T02:47:03.518Z,0
2017-10-20T02:47:44.058Z,0
2017-10-20T02:48:24.594Z,0
2017-10-20T02:49:05.135Z,0
2017-10-20T02:49:45.674Z,0
2017-10-20T02:50:26.205Z,0
2017-10-20T02:51:06.747Z,0
2017-10-20T02:51:47.281Z,0
2017-10-20T02:52:27.819Z,0
2017-10-20T02:53:08.361Z,0
2017-10-20T02:53:48.897Z,0
2017-10-20T02:54:29.435Z,0
2017-10-20T02:55:09.985Z,0
2017-10-20T02:55:50.508Z,0
2017-10-20T02:56:31.044Z,0
2017-10-20T02:57:11.578Z,0
2017-10-20T02:57:52.122Z,0
2017-10-20T02:58:32.677Z,0
2017-10-20T02:59:13.193Z,0
2017-10-20T02:59:53.732Z,0
2017-10-20T03:00:34.264Z,0
2017-10-20T03:01:14.803Z,0
2017-10-20T03:01:55.325Z,0
2017-10-20T03:02:35.862Z,0
2017-10-20T03:03:16.384Z,0
2017-10-20T03:03:56.915Z,0
2017-10-20T03:04:37.444Z,0
2017-10-20T03:05:17.990Z,0
2017-10-20T03:05:58.520Z,0
2017-10-20T03:06:39.060Z,0
2017-10-20T03:07:19.601Z,0
2017-10-20T03:08:00.186Z,0
2017-10-20T03:08:40.724Z,0
2017-10-20T03:09:21.263Z,0
2017-10-20T03:10:01.861Z,0
2017-10-20T03:10:42.436Z,0
2017-10-20T03:11:22.978Z,0
2017-10-20T03:12:03.509Z,0
2017-10-20T03:12:44.043Z,0
2017-10-20T03:13:24.580Z,0
2017-10-20T03:14:05.117Z,0
2017-10-20T03:14:45.648Z,0
2017-10-20T03:15:26.222Z,0
2017-10-20T03:16:06.753Z,0
2017-10-20T03:16:47.302Z,0
2017-10-20T03:17:27.837Z,0
2017-10-20T03:18:08.370Z,0
2017-10-20T03:18:48.912Z,0
2017-10-20T03:19:29.449Z,0
2017-10-20T03:20:09.987Z,0
2017-10-20T03:20:50.521Z,0
2017-10-20T03:21:31.056Z,0
2017-10-20T03:22:11.586Z,0
2017-10-20T03:22:52.112Z,0
2017-10-20T03:23:32.715Z,0
2017-10-20T03:24:13.255Z,0
2017-10-20T03:24:53.792Z,0
2017-10-20T03:25:34.326Z,0
2017-10-20T03:26:14.862Z,0
2017-10-20T03:26:55.400Z,0
2017-10-20T03:27:35.945Z,0
2017-10-20T03:28:16.482Z,0
2017-10-20T03:28:57.040Z,0
2017-10-20T03:29:37.589Z,0
2017-10-20T03:30:18.120Z,0
2017-10-20T03:30:58.657Z,0
2017-10-20T03:31:39.193Z,0
2017-10-20T03:32:19.728Z,0
2017-10-20T03:33:00.262Z,0
2017-10-20T03:33:40.803Z,0
2017-10-20T03:34:21.344Z,0
2017-10-20T03:35:01.882Z,0
2017-10-20T03:35:42.418Z,0
2017-10-20T03:36:22.948Z,0
2017-10-20T03:37:03.487Z,0
2017-10-20T03:37:44.076Z,0
2017-10-20T03:38:24.631Z,0
2017-10-20T03:39:05.174Z,0
2017-10-20T03:39:45.783Z,0
2017-10-20T03:40:26.318Z,0
2017-10-20T03:41:06.838Z,0
2017-10-20T03:41:47.389Z,0
2017-10-20T03:42:27.926Z,0
2017-10-20T03:43:08.463Z,0
2017-10-20T03:43:49.019Z,0
2017-10-20T03:44:29.557Z,0
2017-10-20T03:45:10.092Z,0
2017-10-20T03:45:50.666Z,0
2017-10-20T03:46:31.168Z,0
2017-10-20T03:47:11.708Z,0
2017-10-20T03:47:52.256Z,0
2017-10-20T03:48:32.794Z,0
2017-10-20T03:49:13.371Z,0
2017-10-20T03:49:53.904Z,0
2017-10-20T03:50:34.437Z,0
2017-10-20T03:51:15.008Z,0
2017-10-20T03:51:55.507Z,0
2017-10-20T03:52:36.068Z,0
2017-10-20T03:53:16.599Z,0
2017-10-20T03:53:57.136Z,0
2017-10-20T03:54:37.675Z,0
2017-10-20T03:55:18.210Z,0
2017-10-20T03:55:58.744Z,0
2017-10-20T03:56:39.293Z,0
2017-10-20T03:57:19.829Z,0
2017-10-20T03:58:00.365Z,0
2017-10-20T03:58:40.901Z,0
2017-10-20T03:59:21.437Z,0
2017-10-20T04:00:01.981Z,0
2017-10-20T04:00:42.506Z,0
2017-10-20T04:01:23.055Z,0
2017-10-20T04:02:03.603Z,0
2017-10-20T04:02:44.141Z,0
2017-10-20T04:03:24.686Z,0
2017-10-20T04:04:05.220Z,0
2017-10-20T04:04:45.895Z,0
2017-10-20T04:05:26.414Z,0
2017-10-20T04:06:06.960Z,0
2017-10-20T04:06:47.498Z,0
2017-10-20T04:07:28.038Z,0
2017-10-20T04:08:08.574Z,0
2017-10-20T04:08:49.117Z,0
2017-10-20T04:09:29.655Z,0
2017-10-20T04:10:10.188Z,0
2017-10-20T04:10:50.721Z,0
2017-10-20T04:11:31.887Z,0
2017-10-20T04:12:12.439Z,0
2017-10-20T04:12:52.981Z,0
2017-10-20T04:13:33.518Z,0
2017-10-20T04:14:14.063Z,0
2017-10-20T04:14:54.603Z,0
2017-10-20T04:15:35.272Z,0
2017-10-20T04:16:15.912Z,0
2017-10-20T04:16:56.470Z,0
2017-10-20T04:17:37.019Z,0
2017-10-20T04:18:17.563Z,0
2017-10-20T04:18:58.090Z,0
2017-10-20T04:19:38.636Z,0
2017-10-20T04:20:19.174Z,0
2017-10-20T04:20:59.707Z,0
2017-10-20T04:21:41.822Z,0
2017-10-20T04:22:22.056Z,0
2017-10-20T04:23:02.599Z,0
2017-10-20T04:23:43.215Z,0
2017-10-20T04:24:23.796Z,0
2017-10-20T04:25:04.325Z,0
2017-10-20T04:25:44.963Z,0
2017-10-20T04:26:25.515Z,0
2017-10-20T04:27:06.049Z,0
2017-10-20T04:27:46.580Z,0
2017-10-20T04:28:27.118Z,0
2017-10-20T04:29:07.660Z,0
2017-10-20T04:29:48.209Z,0
2017-10-20T04:30:28.738Z,0
2017-10-20T04:31:09.275Z,0
2017-10-20T04:31:49.818Z,0
2017-10-20T04:32:30.356Z,0
2017-10-20T04:33:10.893Z,0
2017-10-20T04:33:51.432Z,0
2017-10-20T04:34:31.971Z,0
2017-10-20T04:35:12.514Z,0
2017-10-20T04:35:53.050Z,0
2017-10-20T04:36:33.585Z,0
2017-10-20T04:37:14.124Z,0
2017-10-20T04:37:54.688Z,0
2017-10-20T04:38:35.223Z,0
2017-10-20T04:39:15.761Z,0
2017-10-20T04:39:56.302Z,0
2017-10-20T04:40:36.840Z,0
2017-10-20T04:41:17.381Z,0
2017-10-20T04:41:57.976Z,0
2017-10-20T04:42:38.506Z,0
2017-10-20T04:43:19.044Z,0
2017-10-20T04:43:59.584Z,0
2017-10-20T04:44:40.115Z,0
2017-10-20T04:45:20.653Z,0
2017-10-20T04:46:01.191Z,0
2017-10-20T04:46:41.731Z,0
2017-10-20T04:47:22.256Z,0
2017-10-20T04:48:02.842Z,0
2017-10-20T04:48:43.394Z,0
2017-10-20T04:49:23.947Z,0
2017-10-20T04:50:04.491Z,0
2017-10-20T04:50:45.033Z,0
2017-10-20T04:51:25.581Z,0
2017-10-20T04:52:06.129Z,0
2017-10-20T04:52:46.660Z,0
2017-10-20T04:53:27.208Z,0
2017-10-20T04:54:07.756Z,0
2017-10-20T04:54:48.291Z,0
2017-10-20T04:55:28.841Z,0
2017-10-20T04:56:09.446Z,0
2017-10-20T04:56:49.986Z,0
2017-10-20T04:57:30.652Z,0
2017-10-20T04:58:11.228Z,0
2017-10-20T04:58:51.794Z,0
2017-10-20T04:59:32.328Z,0
2017-10-20T05:00:12.865Z,0
2017-10-20T05:00:53.403Z,0
2017-10-20T05:01:33.979Z,0
2017-10-20T05:02:14.520Z,0
2017-10-20T05:02:55.063Z,0
2017-10-20T05:03:35.580Z,0
2017-10-20T05:04:16.125Z,0
2017-10-20T05:04:56.669Z,0
2017-10-20T05:05:37.202Z,0
2017-10-20T05:08:06.680Z,0
2017-10-20T05:08:47.217Z,0
2017-10-20T05:09:27.743Z,0
2017-10-20T05:10:08.276Z,0
2017-10-20T05:10:48.813Z,0
2017-10-20T05:11:29.344Z,0
2017-10-20T05:12:09.969Z,0
2017-10-20T05:12:50.833Z,0
2017-10-20T05:13:31.352Z,0
2017-10-20T05:14:11.888Z,0
2017-10-20T05:14:52.443Z,0
2017-10-20T05:15:32.973Z,0
2017-10-20T05:16:13.556Z,0
2017-10-20T05:16:54.100Z,0
2017-10-20T05:17:34.627Z,0
2017-10-20T05:18:15.164Z,0
2017-10-20T05:18:55.696Z,0
2017-10-20T05:19:36.234Z,0
2017-10-20T05:20:17.445Z,0
2017-10-20T05:20:57.975Z,0
2017-10-20T05:21:38.525Z,0
2017-10-20T05:22:19.057Z,0
2017-10-20T05:22:59.585Z,0
2017-10-20T05:23:40.118Z,0
2017-10-20T05:24:20.641Z,0
2017-10-20T05:25:01.174Z,0
2017-10-20T05:25:41.711Z,0
2017-10-20T05:26:22.246Z,0
2017-10-20T05:27:02.781Z,0
2017-10-20T05:27:43.308Z,0
2017-10-20T05:28:23.840Z,0
2017-10-20T05:29:04.377Z,0
2017-10-20T05:29:44.911Z,0
2017-10-20T05:30:25.473Z,0
2017-10-20T05:31:06.008Z,0
2017-10-20T05:31:46.543Z,0
2017-10-20T05:32:27.074Z,0
2017-10-20T05:33:07.626Z,0
2017-10-20T05:33:48.155Z,0
2017-10-20T05:34:28.682Z,0
2017-10-20T05:35:09.220Z,0
2017-10-20T05:35:49.754Z,0
2017-10-20T05:36:30.289Z,0
2017-10-20T05:37:10.827Z,0
2017-10-20T05:37:51.397Z,0
2017-10-20T05:38:31.930Z,0
2017-10-20T05:39:12.453Z,0
2017-10-20T05:39:52.988Z,0
2017-10-20T05:40:33.520Z,0
2017-10-20T05:41:14.051Z,0
2017-10-20T05:41:54.584Z,0
2017-10-20T05:42:35.122Z,0
2017-10-20T05:43:15.648Z,0
2017-10-20T05:43:56.180Z,0
2017-10-20T05:44:36.725Z,0
2017-10-20T05:45:17.271Z,0
2017-10-20T05:45:57.805Z,0
2017-10-20T05:46:38.342Z,0
2017-10-20T05:47:18.877Z,0
2017-10-20T05:47:59.410Z,0
2017-10-20T05:48:39.945Z,0
2017-10-20T05:49:20.487Z,0
2017-10-20T05:50:01.029Z,0
2017-10-20T05:50:41.563Z,4
2017-10-20T05:51:22.093Z,4
2017-10-20T05:52:02.633Z,0
2017-10-20T05:52:43.173Z,4
2017-10-20T05:53:23.709Z,8
2017-10-20T05:54:04.241Z,4
2017-10-20T05:54:44.774Z,4
2017-10-20T05:55:25.313Z,8
2017-10-20T05:56:05.843Z,4
2017-10-20T05:56:46.375Z,4
2017-10-20T05:57:26.905Z,8
2017-10-20T05:58:07.440Z,8
2017-10-20T05:58:47.985Z,8
2017-10-20T05:59:28.510Z,4
2017-10-20T06:00:09.047Z,8
2017-10-20T06:00:49.582Z,8
2017-10-20T06:01:30.121Z,8
2017-10-20T06:02:10.656Z,12
2017-10-20T06:02:51.186Z,16
2017-10-20T06:03:31.722Z,16
2017-10-20T06:04:12.263Z,16
2017-10-20T06:04:52.800Z,24
2017-10-20T06:05:33.331Z,28
2017-10-20T06:06:13.867Z,28
2017-10-20T06:06:54.403Z,28
2017-10-20T06:07:34.938Z,28
2017-10-20T06:08:15.472Z,28
2017-10-20T06:08:56.005Z,28
2017-10-20T06:09:36.534Z,36
2017-10-20T06:10:17.070Z,36
2017-10-20T06:10:57.598Z,36
2017-10-20T06:11:38.134Z,44
2017-10-20T06:12:18.665Z,44
2017-10-20T06:12:59.198Z,44
2017-10-20T06:13:39.726Z,48
2017-10-20T06:14:20.265Z,52
2017-10-20T06:15:00.801Z,52
2017-10-20T06:15:41.336Z,52
2017-10-20T06:16:21.881Z,52
2017-10-20T06:17:02.412Z,56
2017-10-20T06:17:42.946Z,56
2017-10-20T06:18:23.472Z,56
2017-10-20T06:19:04.011Z,56
2017-10-20T06:19:44.577Z,64
2017-10-20T06:20:25.110Z,68
2017-10-20T06:21:05.716Z,72
2017-10-20T06:21:46.246Z,84
2017-10-20T06:22:26.789Z,96
2017-10-20T06:23:07.324Z,108
2017-10-20T06:23:47.892Z,112
2017-10-20T06:24:28.421Z,124
2017-10-20T06:25:08.962Z,136
2017-10-20T06:25:49.495Z,152
2017-10-20T06:26:30.046Z,172
2017-10-20T06:27:10.583Z,196
2017-10-20T06:27:51.127Z,224
2017-10-20T06:28:31.654Z,244
2017-10-20T06:29:12.185Z,256
2017-10-20T06:29:52.716Z,276
2017-10-20T06:30:33.260Z,284
2017-10-20T06:31:13.794Z,292
2017-10-20T06:31:54.338Z,292
2017-10-20T06:32:34.860Z,280
2017-10-20T06:33:15.398Z,272
2017-10-20T06:33:55.934Z,276
2017-10-20T06:34:36.469Z,280
2017-10-20T06:35:17.005Z,288
2017-10-20T06:35:57.543Z,312
2017-10-20T06:36:38.079Z,332
2017-10-20T06:37:18.610Z,352
2017-10-20T06:37:59.148Z,368
2017-10-20T06:38:39.679Z,388
2017-10-20T06:39:20.240Z,412
2017-10-20T06:40:00.771Z,416
2017-10-20T06:40:41.304Z,428
2017-10-20T06:41:21.839Z,452
2017-10-20T06:42:02.383Z,472
2017-10-20T06:42:42.925Z,480
2017-10-20T06:43:23.457Z,492
2017-10-20T06:44:03.993Z,492
2017-10-20T06:44:44.527Z,488
2017-10-20T06:45:25.064Z,484
2017-10-20T06:46:05.600Z,488
2017-10-20T06:46:46.137Z,488
2017-10-20T06:47:26.670Z,484
2017-10-20T06:48:07.222Z,488
2017-10-20T06:48:47.747Z,508
2017-10-20T06:49:28.279Z,520
2017-10-20T06:50:08.817Z,544
2017-10-20T06:50:49.357Z,564
2017-10-20T06:51:29.896Z,560
2017-10-20T06:52:10.423Z,564
2017-10-20T06:52:50.963Z,588
2017-10-20T06:53:31.500Z,592
2017-10-20T06:54:12.037Z,628
2017-10-20T06:54:52.572Z,672
2017-10-20T06:55:33.107Z,716
2017-10-20T06:56:13.633Z,692
2017-10-20T06:56:54.167Z,684
2017-10-20T06:57:34.702Z,696
2017-10-20T06:58:15.241Z,728
2017-10-20T06:58:55.783Z,720
2017-10-20T06:59:36.337Z,724
2017-10-20T07:00:16.851Z,760
2017-10-20T07:00:57.387Z,796
2017-10-20T07:01:37.919Z,872
2017-10-20T07:02:18.453Z,1000
2017-10-20T07:02:58.989Z,1012
2017-10-20T07:03:39.521Z,948
2017-10-20T07:04:20.056Z,972
2017-10-20T07:05:00.603Z,952
2017-10-20T07:05:41.139Z,980
2017-10-20T07:06:21.668Z,1020
2017-10-20T07:07:02.210Z,1076
2017-10-20T07:07:42.747Z,1192
2017-10-20T07:08:23.283Z,1372
2017-10-20T07:09:03.818Z,1504
2017-10-20T07:09:44.354Z,1636
2017-10-20T07:10:24.885Z,2204
2017-10-20T07:11:05.415Z,2692
2017-10-20T07:11:45.951Z,2616
2017-10-20T07:12:26.487Z,2436
2017-10-20T07:13:07.023Z,2544
2017-10-20T07:13:47.605Z,2700
2017-10-20T07:14:28.147Z,2444
2017-10-20T07:15:08.681Z,2424
2017-10-20T07:15:49.214Z,2536
2017-10-20T07:16:29.743Z,2828
2017-10-20T07:17:10.278Z,3184
2017-10-20T07:17:50.810Z,3300
2017-10-20T07:18:31.353Z,3148
2017-10-20T07:19:11.886Z,3232
2017-10-20T07:19:52.430Z,3380
2017-10-20T07:20:33.051Z,3464
2017-10-20T07:21:13.657Z,3708
2017-10-20T07:21:54.198Z,3660
2017-10-20T07:22:34.733Z,3676
2017-10-20T07:23:15.271Z,3772
2017-10-20T07:23:55.810Z,3720
2017-10-20T07:24:36.345Z,3572
2017-10-20T07:25:16.877Z,3464
2017-10-20T07:25:57.412Z,3256
2017-10-20T07:26:37.949Z,3428
2017-10-20T07:27:18.486Z,3492
2017-10-20T07:27:59.024Z,3476
2017-10-20T07:28:39.561Z,3360
2017-10-20T07:29:20.095Z,3340
2017-10-20T07:30:00.623Z,3380
2017-10-20T07:30:41.163Z,3424
2017-10-20T07:31:21.697Z,3488
2017-10-20T07:32:02.231Z,3564
2017-10-20T07:32:42.762Z,3656
2017-10-20T07:33:23.298Z,3692
2017-10-20T07:34:03.838Z,3680
2017-10-20T07:34:44.377Z,3740
2017-10-20T07:35:24.940Z,3780
2017-10-20T07:36:05.456Z,3768
2017-10-20T07:36:45.995Z,3636
2017-10-20T07:37:26.535Z,3384
2017-10-20T07:38:07.074Z,3248
2017-10-20T07:38:47.606Z,3072
2017-10-20T07:39:28.142Z,3168
2017-10-20T07:40:08.682Z,3212
2017-10-20T07:40:49.218Z,3216
2017-10-20T07:41:29.760Z,3116
2017-10-20T07:42:10.290Z,3016
2017-10-20T07:42:50.831Z,2904
2017-10-20T07:43:31.370Z,2720
2017-10-20T07:44:11.903Z,2532
2017-10-20T07:44:52.437Z,2328
2017-10-20T07:45:32.976Z,2372
2017-10-20T07:46:13.514Z,2432
2017-10-20T07:46:54.053Z,2264
2017-10-20T07:47:34.590Z,2128
2017-10-20T07:48:15.124Z,2100
2017-10-20T07:48:55.657Z,1964
2017-10-20T07:49:36.202Z,1900
2017-10-20T07:50:16.742Z,1780
2017-10-20T07:50:57.385Z,1612
2017-10-20T07:51:37.879Z,1568
2017-10-20T07:52:18.419Z,1460
2017-10-20T07:52:58.956Z,1448
2017-10-20T07:53:39.492Z,1420
2017-10-20T07:54:20.028Z,1396
2017-10-20T07:55:00.569Z,1332
2017-10-20T07:55:41.101Z,1276
2017-10-20T07:56:21.674Z,1160
2017-10-20T07:57:02.216Z,1016
2017-10-20T07:57:42.743Z,908
2017-10-20T07:58:23.277Z,864
2017-10-20T07:59:03.812Z,828
2017-10-20T07:59:44.351Z,884
2017-10-20T08:00:24.891Z,896
2017-10-20T08:01:05.427Z,1000
2017-10-20T08:01:45.995Z,1112
2017-10-20T08:02:26.521Z,1064
2017-10-20T08:03:07.042Z,836
2017-10-20T08:03:47.577Z,736
2017-10-20T08:04:28.123Z,620
2017-10-20T08:05:08.650Z,584
2017-10-20T08:05:49.188Z,616
2017-10-20T08:06:29.724Z,672
2017-10-20T08:07:10.262Z,676
2017-10-20T08:07:50.794Z,596
2017-10-20T08:08:31.332Z,772
2017-10-20T08:09:11.868Z,836
2017-10-20T08:09:52.410Z,584
2017-10-20T08:10:32.952Z,756
2017-10-20T08:11:13.477Z,788
2017-10-20T08:11:54.015Z,1020
2017-10-20T08:12:34.548Z,1112
2017-10-20T08:13:15.083Z,772
2017-10-20T08:13:55.616Z,588
2017-10-20T08:14:36.156Z,832
2017-10-20T08:15:16.695Z,1208
2017-10-20T08:15:57.235Z,1444
2017-10-20T08:16:37.747Z,1788
2017-10-20T08:17:18.283Z,1424
2017-10-20T08:17:58.814Z,1304
2017-10-20T08:18:39.356Z,1140
2017-10-20T08:19:19.888Z,1540
2017-10-20T08:20:00.426Z,1708
2017-10-20T08:20:41.008Z,1684
2017-10-20T08:21:21.548Z,1628
2017-10-20T08:22:02.188Z,1736
2017-10-20T08:22:42.733Z,1928
2017-10-20T08:23:23.260Z,2688
2017-10-20T08:24:03.800Z,3060
2017-10-20T08:24:44.337Z,4272
2017-10-20T08:25:24.872Z,4964
2017-10-20T08:26:05.405Z,5060
2017-10-20T08:26:45.945Z,4152
2017-10-20T08:27:26.486Z,4000
2017-10-20T08:28:07.018Z,4416
2017-10-20T08:28:47.553Z,4624
2017-10-20T08:29:28.084Z,3876
2017-10-20T08:30:08.627Z,3280
2017-10-20T08:30:49.162Z,2932
2017-10-20T08:31:29.697Z,2808
2017-10-20T08:32:10.244Z,2624
2017-10-20T08:32:50.775Z,2736
2017-10-20T08:33:31.319Z,3132
2017-10-20T08:34:11.853Z,3528
2017-10-20T08:34:52.383Z,4424
2017-10-20T08:35:32.923Z,4440
2017-10-20T08:36:13.455Z,4292
2017-10-20T08:36:53.991Z,4120
2017-10-20T08:37:34.541Z,3872
2017-10-20T08:38:15.082Z,3588
2017-10-20T08:38:55.621Z,3172
2017-10-20T08:39:36.158Z,3576
2017-10-20T08:40:16.691Z,3424
2017-10-20T08:40:57.229Z,3360
2017-10-20T08:41:37.769Z,3768
2017-10-20T08:42:18.310Z,3484
2017-10-20T08:42:58.846Z,2884
2017-10-20T08:43:39.383Z,2428
2017-10-20T08:44:19.927Z,2504
2017-10-20T08:45:00.464Z,2380
2017-10-20T08:45:41.000Z,2088
2017-10-20T08:46:21.538Z,2048
2017-10-20T08:47:02.071Z,1560
2017-10-20T08:47:42.612Z,1380
2017-10-20T08:48:23.154Z,1560
2017-10-20T08:49:03.691Z,1164
2017-10-20T08:49:44.231Z,1148
2017-10-20T08:50:24.762Z,1076
2017-10-20T08:51:05.301Z,1052
2017-10-20T08:51:45.840Z,1504
2017-10-20T08:52:26.377Z,1152
2017-10-20T08:53:06.917Z,1032
2017-10-20T08:53:47.455Z,852
2017-10-20T08:54:27.996Z,936
2017-10-20T08:55:08.545Z,776
2017-10-20T08:55:49.080Z,768
2017-10-20T08:56:29.621Z,964
2017-10-20T08:57:10.156Z,1276
2017-10-20T08:57:50.699Z,1236
2017-10-20T08:58:31.237Z,1432
2017-10-20T08:59:11.773Z,1668
2017-10-20T08:59:52.311Z,1964
2017-10-20T09:00:32.848Z,1948
2017-10-20T09:01:13.386Z,1728
2017-10-20T09:01:53.922Z,1816
2017-10-20T09:02:34.460Z,1644
2017-10-20T09:03:14.998Z,1832
2017-10-20T09:03:55.534Z,3092
2017-10-20T09:04:36.075Z,3600
2017-10-20T09:05:16.615Z,2632
2017-10-20T09:05:57.147Z,1968
2017-10-20T09:06:37.697Z,1572
2017-10-20T09:07:18.228Z,1244
2017-10-20T09:07:58.766Z,1228
2017-10-20T09:08:39.304Z,1404
2017-10-20T09:09:19.844Z,1796
2017-10-20T09:10:00.384Z,1972
2017-10-20T09:10:40.921Z,1756
2017-10-20T09:11:21.452Z,1792
2017-10-20T09:12:01.989Z,1464
2017-10-20T09:12:42.531Z,1572
2017-10-20T09:13:23.066Z,1944
2017-10-20T09:14:03.588Z,1900
2017-10-20T09:14:44.125Z,1864
2017-10-20T09:15:24.659Z,2824
2017-10-20T09:16:05.237Z,3268
2017-10-20T09:16:45.778Z,3876
2017-10-20T09:17:26.317Z,3760
2017-10-20T09:18:06.847Z,3364
2017-10-20T09:18:47.386Z,2868
2017-10-20T09:19:27.919Z,2296
2017-10-20T09:20:08.471Z,1752
2017-10-20T09:20:49.014Z,1428
2017-10-20T09:21:29.557Z,1344
2017-10-20T09:22:10.097Z,1184
2017-10-20T09:22:50.633Z,1288
2017-10-20T09:23:31.177Z,1604
2017-10-20T09:24:11.712Z,1980
2017-10-20T09:24:52.254Z,1668
2017-10-20T09:25:32.792Z,1628
2017-10-20T09:26:13.325Z,1480
2017-10-20T09:26:53.871Z,1552
2017-10-20T09:27:34.430Z,1624
2017-10-20T09:28:14.975Z,1316
2017-10-20T09:28:55.512Z,1124
2017-10-20T09:29:36.054Z,1024
2017-10-20T09:30:16.590Z,964
2017-10-20T09:30:57.132Z,936
2017-10-20T09:31:37.671Z,976
2017-10-20T09:32:18.229Z,1004
2017-10-20T09:32:58.749Z,868
2017-10-20T09:33:39.284Z,776
2017-10-20T09:34:19.830Z,904
2017-10-20T09:35:00.365Z,1460
2017-10-20T09:35:40.910Z,1860
2017-10-20T09:36:21.447Z,1640
2017-10-20T09:37:01.974Z,1140
2017-10-20T09:37:42.514Z,1044
2017-10-20T09:38:23.053Z,988
2017-10-20T09:39:03.587Z,924
2017-10-20T09:39:44.135Z,1200
2017-10-20T09:40:24.671Z,1440
2017-10-20T09:41:05.216Z,1340